.
WxDataArchive / Data Records for 2009-07-13
2009-07-12 July 2009 2009-07-14

Data Records for Monday, 13 July 2009

Time	Temp	Chill	HIndex	Humid	Dewpt	 Wind 	HiWind	WindDir	Rain 	Barom 
-----	----	-----	------	-----	-----	------	------	-------	-----	----- 
00:00	64.0	64.0	64.0	60	49.8	0	0	---	0.00	30.044 
00:05	63.7	63.7	63.7	60	49.5	0	0	---	0.00	30.044 
00:10	63.5	63.5	63.5	61	49.8	0	0	---	0.00	30.044 
00:15	63.2	63.2	63.2	61	49.5	0	0	---	0.00	30.052 
00:20	63.1	63.1	63.1	61	49.4	0	0	---	0.00	30.052 
00:25	63.1	63.1	63.1	61	49.4	0	0	---	0.00	30.052 
00:30	62.7	62.7	62.7	61	49.1	0	0	---	0.00	30.052 
00:35	62.6	62.6	62.6	62	49.4	0	0	---	0.00	30.052 
00:40	62.4	62.4	62.4	63	49.6	0	0	---	0.00	30.052 
00:45	62.1	62.1	62.1	63	49.3	0	0	---	0.00	30.055 
00:50	62.0	62.0	62.0	64	49.7	0	0	---	0.00	30.055 
00:55	61.6	61.6	61.6	65	49.7	0	0	---	0.00	30.055 
01:00	61.5	61.5	61.5	66	50.0	0	0	---	0.00	30.057 
01:05	61.2	61.2	61.2	67	50.2	0	0	---	0.00	30.057 
01:10	60.9	60.9	60.9	68	50.3	0	0	---	0.00	30.057 
01:15	60.7	60.7	60.7	69	50.5	0	0	---	0.00	30.060 
01:20	60.4	60.4	60.4	70	50.6	0	0	---	0.00	30.060 
01:25	60.2	60.2	60.2	70	50.4	0	0	---	0.00	30.060 
01:30	59.9	59.9	59.9	72	50.8	0	0	---	0.00	30.060 
01:35	59.8	59.8	59.8	72	50.8	0	0	---	0.00	30.060 
01:40	59.5	59.5	59.5	73	50.8	0	0	---	0.00	30.060 
01:45	59.3	59.3	59.3	73	50.6	0	0	---	0.00	30.064 
01:50	59.0	59.0	59.0	74	50.7	0	0	---	0.00	30.064 
01:55	58.9	58.9	58.9	75	51.0	0	0	---	0.00	30.064 
02:00	58.6	58.6	58.6	75	50.7	0	0	---	0.00	30.062 
02:05	58.4	58.4	58.4	76	50.9	0	0	---	0.00	30.062 
02:10	58.1	58.1	58.1	77	50.9	0	0	---	0.00	30.062 
02:15	58.0	58.0	58.0	78	51.2	0	0	---	0.00	30.063 
02:20	57.8	57.8	57.8	78	51.0	0	0	---	0.00	30.063 
02:25	57.6	57.6	57.6	79	51.1	0	0	---	0.00	30.063 
02:30	57.5	57.5	57.5	81	51.7	0	0	---	0.00	30.064 
02:35	57.3	57.3	57.3	81	51.5	0	0	---	0.00	30.064 
02:40	57.2	57.2	57.2	82	51.8	0	0	---	0.00	30.064 
02:45	57.0	57.0	57.0	82	51.6	0	0	---	0.00	30.066 
02:50	57.0	57.0	57.0	82	51.6	0	0	---	0.00	30.066 
02:55	56.9	56.9	56.9	82	51.5	0	0	---	0.00	30.066 
03:00	56.7	56.7	56.7	83	51.6	0	0	---	0.00	30.064 
03:05	56.6	56.6	56.6	83	51.5	0	0	---	0.00	30.064 
03:10	56.5	56.5	56.5	84	51.7	0	0	---	0.00	30.064 
03:15	56.3	56.3	56.3	84	51.5	0	0	---	0.00	30.061 
03:20	56.2	56.2	56.2	84	51.4	0	0	---	0.00	30.061 
03:25	56.0	56.0	56.0	84	51.2	0	0	---	0.00	30.061 
03:30	55.9	55.9	55.9	84	51.1	0	0	---	0.00	30.057 
03:35	55.7	55.7	55.7	85	51.3	0	0	---	0.00	30.057 
03:40	55.7	55.7	55.7	85	51.3	0	0	---	0.00	30.057 
03:45	55.7	55.7	55.7	86	51.6	0	0	---	0.00	30.056 
03:50	55.6	55.6	55.6	86	51.5	0	0	---	0.00	30.056 
03:55	55.4	55.4	55.4	86	51.3	0	0	---	0.00	30.056 
04:00	55.3	55.3	55.3	86	51.2	0	0	---	0.00	30.056 
04:05	55.3	55.3	55.3	87	51.5	0	0	---	0.00	30.056 
04:10	55.1	55.1	55.1	87	51.3	0	0	---	0.00	30.056 
04:15	55.0	55.0	55.0	87	51.2	0	0	---	0.00	30.055 
04:20	55.0	55.0	55.0	88	51.5	0	0	---	0.00	30.055 
04:25	54.8	54.8	54.8	88	51.3	0	0	---	0.00	30.055 
04:30	54.8	54.8	54.8	88	51.3	0	0	---	0.00	30.052 
04:35	54.7	54.7	54.7	88	51.2	0	0	---	0.00	30.052 
04:40	54.7	54.7	54.7	88	51.2	0	0	---	0.00	30.052 
04:45	54.7	54.7	54.7	89	51.5	0	0	---	0.00	30.049 
04:50	54.5	54.5	54.5	89	51.3	0	0	---	0.00	30.049 
04:55	54.5	54.5	54.5	89	51.3	0	0	---	0.00	30.049 
05:00	54.4	54.4	54.4	89	51.2	0	0	---	0.00	30.052 
05:05	54.4	54.4	54.4	89	51.2	0	0	---	0.00	30.052 
05:10	54.4	54.4	54.4	89	51.2	0	0	---	0.00	30.052 
05:15	54.4	54.4	54.4	90	51.5	0	0	---	0.00	30.052 
05:20	54.2	54.2	54.2	90	51.3	0	0	---	0.00	30.052 
05:25	54.2	54.2	54.2	90	51.3	0	0	---	0.00	30.052 
05:30	54.1	54.1	54.1	90	51.2	0	0	---	0.00	30.056 
05:35	54.1	54.1	54.1	90	51.2	0	0	---	0.00	30.056 
05:40	54.1	54.1	54.1	90	51.2	0	0	---	0.00	30.056 
05:45	53.9	53.9	53.9	90	51.0	0	0	---	0.00	30.056 
05:50	53.9	53.9	53.9	90	51.0	0	0	---	0.00	30.056 
05:55	53.9	53.9	53.9	90	51.0	0	0	---	0.00	30.056 
06:00	53.9	53.9	53.9	90	51.0	0	0	---	0.00	30.054 
06:05	53.8	53.8	53.8	91	51.2	0	0	---	0.00	30.054 
06:10	53.8	53.8	53.8	91	51.2	0	0	---	0.00	30.054 
06:15	53.6	53.6	53.6	91	51.0	0	0	---	0.00	30.057 
06:20	53.6	53.6	53.6	91	51.0	0	0	---	0.00	30.057 
06:25	53.6	53.6	53.6	91	51.0	0	0	---	0.00	30.057 
06:30	53.5	53.5	53.5	91	50.9	0	0	---	0.00	30.058 
06:35	53.6	53.6	53.6	92	51.3	0	0	---	0.00	30.058 
06:40	53.8	53.8	53.8	92	51.5	0	0	---	0.00	30.058 
06:45	53.9	53.9	53.9	92	51.6	0	0	---	0.00	30.057 
06:50	54.1	54.1	54.1	92	51.8	0	0	---	0.00	30.057 
06:55	54.2	54.2	54.2	92	51.9	0	0	---	0.00	30.057 
07:00	54.4	54.4	54.4	92	52.1	0	0	---	0.00	30.057 
07:05	54.5	54.5	54.5	92	52.2	0	0	---	0.00	30.057 
07:10	54.7	54.7	54.7	92	52.4	0	0	---	0.00	30.057 
07:15	55.0	55.0	55.0	92	52.7	0	0	---	0.00	30.056 
07:20	55.3	55.3	55.3	92	53.0	0	0	---	0.00	30.056 
07:25	55.6	55.6	55.6	92	53.3	0	0	---	0.00	30.056 
07:30	55.9	55.9	55.9	91	53.3	0	0	---	0.00	30.058 
07:35	56.3	56.3	56.3	91	53.7	0	0	---	0.00	30.058 
07:40	56.6	56.6	56.6	91	54.0	0	0	---	0.00	30.058 
07:45	57.0	57.0	57.0	90	54.1	0	0	---	0.00	30.059 
07:50	57.6	57.6	57.6	90	54.7	0	0	---	0.00	30.059 
07:55	58.4	58.4	58.4	89	55.2	0	0	---	0.00	30.059 
08:00	59.6	59.6	59.6	85	55.1	0	1	292	0.00	30.065 
08:05	61.0	61.0	61.0	82	55.5	0	0	---	0.00	30.065 
08:10	62.6	62.6	62.6	76	54.9	0	1	292	0.00	30.065 
08:15	63.4	63.4	63.4	66	51.8	0	3	292	0.00	30.067 
08:20	64.0	64.0	64.0	64	51.6	0	2	292	0.00	30.067 
08:25	64.2	64.2	64.2	63	51.3	0	1	292	0.00	30.067 
08:30	64.3	64.3	64.3	61	50.6	0	1	292	0.00	30.070 
08:35	64.7	64.7	64.7	58	49.6	1	2	292	0.00	30.070 
08:40	64.8	64.8	64.8	56	48.7	1	3	22	0.00	30.070 
08:45	65.3	65.3	65.3	57	49.7	0	2	22	0.00	30.068 
08:50	65.8	65.8	65.8	58	50.6	0	1	22	0.00	30.068 
08:55	66.8	66.8	66.8	56	50.6	0	2	22	0.00	30.068 
09:00	67.8	67.8	67.8	51	49.0	0	2	22	0.00	30.067 
09:05	68.6	68.6	68.6	47	47.6	1	3	22	0.00	30.067 
09:10	68.9	68.9	68.9	50	49.5	1	3	22	0.00	30.067 
09:15	69.3	69.3	69.3	50	49.8	0	3	22	0.00	30.068 
09:20	69.8	69.8	69.8	48	49.2	0	1	22	0.00	30.068 
09:25	70.3	70.3	70.3	44	47.3	0	3	22	0.00	30.068 
09:30	70.4	70.4	70.4	46	48.6	1	3	68	0.00	30.067 
09:35	70.8	70.8	70.8	46	49.0	0	2	68	0.00	30.067 
09:40	71.5	71.5	71.5	45	49.0	0	2	68	0.00	30.067 
09:45	71.6	71.6	71.6	44	48.5	1	3	135	0.00	30.066 
09:50	71.1	71.1	71.1	42	46.8	2	4	90	0.00	30.066 
09:55	71.1	71.1	71.1	44	48.1	1	2	90	0.00	30.066 
10:00	71.6	71.6	71.6	42	47.3	1	3	90	0.00	30.062 
10:05	72.0	72.0	72.0	43	48.3	0	2	112	0.00	30.062 
10:10	72.3	72.3	72.3	41	47.3	0	2	112	0.00	30.062 
10:15	72.7	72.7	72.7	42	48.3	1	2	112	0.00	30.062 
10:20	73.0	73.0	73.0	37	45.2	1	3	90	0.00	30.062 
10:25	73.2	73.2	73.2	39	46.7	0	2	248	0.00	30.062 
10:30	73.5	73.5	73.5	39	47.0	1	2	248	0.00	30.063 
10:35	74.0	74.0	74.0	37	46.1	0	1	248	0.00	30.063 
10:40	74.4	74.4	74.4	39	47.8	0	2	248	0.00	30.063 
10:45	74.6	74.6	74.6	37	46.6	1	3	248	0.00	30.063 
10:50	74.7	74.7	74.7	37	46.7	1	3	90	0.00	30.063 
10:55	74.9	74.9	74.9	35	45.4	0	1	90	0.00	30.063 
11:00	75.3	75.3	77.3	34	45.0	1	3	90	0.00	30.064 
11:05	75.6	75.6	77.4	34	45.2	1	4	112	0.00	30.064 
11:10	75.8	75.8	77.4	33	44.6	0	1	180	0.00	30.064 
11:15	76.1	76.1	77.6	35	46.4	1	2	180	0.00	30.063 
11:20	76.7	76.7	77.5	30	42.9	1	2	180	0.00	30.063 
11:25	76.7	76.7	77.7	32	44.6	1	2	180	0.00	30.063 
11:30	77.0	77.0	77.9	33	45.7	1	4	180	0.00	30.067 
11:35	77.0	77.0	77.7	31	44.0	1	4	315	0.00	30.067 
11:40	77.0	77.0	77.8	32	44.9	0	2	90	0.00	30.067 
11:45	77.2	77.2	78.1	36	48.2	1	3	90	0.00	30.063 
11:50	76.7	76.7	77.8	34	46.2	0	1	90	0.00	30.063 
11:55	76.5	76.5	77.7	34	46.0	0	1	90	0.00	30.063 
12:00	76.3	76.3	77.6	34	45.8	0	1	90	0.00	30.059 
12:05	76.7	76.7	78.1	39	49.9	1	3	90	0.00	30.059 
12:10	77.0	77.0	78.0	35	47.2	1	3	68	0.00	30.059 
12:15	77.2	77.2	78.1	35	47.4	1	2	45	0.00	30.063 
12:20	76.8	76.8	77.9	36	47.8	2	5	68	0.00	30.063 
12:25	76.7	76.7	77.7	32	44.6	1	4	90	0.00	30.063 
12:30	76.7	76.7	78.0	37	48.4	1	4	112	0.00	30.053 
12:35	77.2	77.2	77.9	33	45.8	1	3	248	0.00	30.053 
12:40	77.4	77.4	78.2	36	48.3	1	3	292	0.00	30.053 
12:45	77.9	77.9	78.3	33	46.5	0	2	292	0.00	30.052 
12:50	77.7	77.7	78.0	31	44.6	1	4	248	0.00	30.052 
12:55	77.6	77.6	78.4	37	49.2	0	2	248	0.00	30.052 
13:00	77.9	77.9	78.3	34	47.2	0	2	248	0.00	30.051 
13:05	78.3	78.3	78.6	35	48.4	1	2	270	0.00	30.051 
13:10	78.3	78.3	78.4	32	46.0	1	3	292	0.00	30.051 
13:15	78.5	78.5	78.9	39	51.5	0	2	270	0.00	30.052 
13:20	78.6	78.6	78.7	34	47.9	0	2	270	0.00	30.052 
13:25	78.3	78.3	78.6	35	48.4	1	3	315	0.00	30.052 
13:30	78.1	78.1	78.4	34	47.4	1	4	270	0.00	30.054 
13:35	78.3	78.3	78.8	39	51.3	1	3	270	0.00	30.054 
13:40	78.6	78.6	78.7	35	48.6	1	3	292	0.00	30.054 
13:45	78.1	78.1	78.6	37	49.7	1	4	270	0.00	30.040 
13:50	78.5	78.5	78.9	38	50.8	1	3	270	0.00	30.040 
13:55	78.5	78.5	78.7	35	48.5	2	4	270	0.00	30.040 
14:00	78.5	78.5	78.7	35	48.5	1	4	270	0.00	30.043 
14:05	78.6	78.6	78.7	34	47.9	1	4	270	0.00	30.043 
14:10	78.3	78.3	78.6	35	48.4	1	3	315	0.00	30.043 
14:15	78.5	78.5	78.7	36	49.3	1	3	315	0.00	30.038 
14:20	78.5	78.5	78.8	37	50.0	1	3	315	0.00	30.038 
14:25	78.3	78.3	78.6	36	49.1	2	5	315	0.00	30.038 
14:30	78.1	78.1	78.5	36	48.9	1	3	315	0.00	30.039 
14:35	78.3	78.3	78.8	38	50.6	1	3	315	0.00	30.039 
14:40	78.5	78.5	78.8	37	50.0	1	4	315	0.00	30.039 
14:45	78.5	78.5	78.9	38	50.8	0	1	270	0.00	30.037 
14:50	78.5	78.5	78.8	37	50.0	1	3	292	0.00	30.037 
14:55	78.5	78.5	78.9	38	50.8	1	3	315	0.00	30.037 
15:00	78.6	78.6	78.9	37	50.1	1	3	315	0.00	30.032 
15:05	78.8	78.8	79.1	39	51.7	1	4	292	0.00	30.032 
15:10	78.5	78.5	78.8	37	50.0	1	4	292	0.00	30.032 
15:15	77.9	77.9	78.6	39	50.9	1	4	292	0.00	30.033 
15:20	77.4	77.4	78.4	40	51.2	1	3	315	0.00	30.033 
15:25	77.7	77.7	78.6	41	52.1	1	2	315	0.00	30.033 
15:30	78.6	78.6	78.9	38	50.8	1	4	315	0.00	30.026 
15:35	79.2	79.2	79.1	36	49.9	1	3	292	0.00	30.026 
15:40	79.6	79.6	79.6	39	52.4	0	3	292	0.00	30.026 
15:45	79.6	79.6	79.4	36	50.3	1	2	315	0.00	30.026 
15:50	79.8	79.8	79.5	36	50.4	1	4	315	0.00	30.026 
15:55	79.9	79.9	79.3	33	48.2	1	4	270	0.00	30.026 
16:00	79.4	79.4	79.0	33	47.8	2	4	315	0.00	30.025 
16:05	79.4	79.4	79.0	32	46.9	1	4	270	0.00	30.025 
16:10	79.8	79.8	79.3	33	48.1	2	5	292	0.00	30.025 
16:15	80.1	80.1	79.5	33	48.4	1	5	270	0.00	30.025 
16:20	80.5	80.5	79.7	33	48.7	2	5	292	0.00	30.025 
16:25	80.1	80.1	79.5	34	49.2	2	6	270	0.00	30.025 
16:30	79.9	79.9	79.3	33	48.2	2	4	292	0.00	30.023 
16:35	80.1	80.1	79.5	33	48.4	1	4	270	0.00	30.023 
16:40	80.3	80.3	79.7	34	49.3	2	5	315	0.00	30.023 
16:45	80.3	80.3	79.7	34	49.3	2	5	315	0.00	30.022 
16:50	80.5	80.5	79.8	34	49.5	1	4	270	0.00	30.022 
16:55	80.9	80.9	80.1	34	49.9	1	3	292	0.00	30.022 
17:00	80.7	80.7	79.7	31	47.2	2	5	292	0.00	30.021 
17:05	80.3	80.3	79.6	33	48.5	1	4	270	0.00	30.021 
17:10	80.3	80.3	79.6	33	48.5	2	5	292	0.00	30.021 
17:15	80.3	80.3	79.5	32	47.7	2	4	270	0.00	30.020 
17:20	79.9	79.9	79.2	31	46.5	2	4	270	0.00	30.020 
17:25	79.0	79.0	78.9	34	48.2	1	3	292	0.00	30.020 
17:30	79.2	79.2	78.8	31	45.9	1	3	292	0.00	30.021 
17:35	79.8	79.8	78.9	28	43.8	0	1	315	0.00	30.021 
17:40	80.1	80.1	79.3	31	46.7	1	5	315	0.00	30.021 
17:45	79.8	79.8	79.1	30	45.6	1	3	315	0.00	30.019 
17:50	80.1	80.1	79.2	30	45.8	1	4	0	0.00	30.019 
17:55	79.9	79.9	79.0	28	43.9	2	4	315	0.00	30.019 
18:00	79.8	79.8	78.9	27	42.8	2	6	270	0.00	30.019 
18:05	79.6	79.6	78.8	27	42.7	2	5	292	0.00	30.019 
18:10	79.0	79.0	78.6	30	44.9	1	4	292	0.00	30.019 
18:15	78.6	78.6	78.5	31	45.4	1	4	315	0.00	30.020 
18:20	78.6	78.6	78.6	33	47.1	1	5	315	0.00	30.020 
18:25	78.5	78.5	78.4	31	45.3	0	3	292	0.00	30.020 
18:30	77.9	77.9	78.0	29	43.1	1	6	270	0.00	30.023 
18:35	77.9	77.9	78.1	31	44.8	1	4	270	0.00	30.023 
18:40	77.9	77.9	78.1	30	43.9	1	4	292	0.00	30.023 
18:45	77.6	77.6	77.9	29	42.8	1	4	315	0.00	30.028 
18:50	77.2	77.2	77.7	29	42.5	1	3	315	0.00	30.028 
18:55	77.4	77.4	77.9	31	44.4	1	3	292	0.00	30.028 
19:00	77.2	77.2	77.7	29	42.5	1	4	292	0.00	30.033 
19:05	77.0	77.0	77.5	28	41.4	1	3	292	0.00	30.033 
19:10	76.7	76.7	77.5	29	42.0	1	4	292	0.00	30.033 
19:15	76.5	76.5	77.5	31	43.6	0	3	90	0.00	30.032 
19:20	76.3	76.3	77.3	29	41.7	1	3	270	0.00	30.032 
19:25	76.3	76.3	77.2	28	40.8	1	5	292	0.00	30.032 
19:30	76.0	76.0	77.2	29	41.4	2	4	292	0.00	30.037 
19:35	75.6	75.6	77.2	31	42.8	0	2	292	0.00	30.037 
19:40	75.4	75.4	77.1	31	42.6	1	3	315	0.00	30.037 
19:45	74.9	74.9	74.9	31	42.2	1	4	315	0.00	30.041 
19:50	74.6	74.6	74.6	31	42.0	1	3	315	0.00	30.041 
19:55	74.6	74.6	74.6	31	42.0	1	3	315	0.00	30.041 
20:00	74.4	74.4	74.4	33	43.4	1	3	315	0.00	30.043 
20:05	74.2	74.2	74.2	31	41.6	1	3	292	0.00	30.043 
20:10	74.0	74.0	74.0	32	42.3	1	4	292	0.00	30.043 
20:15	73.9	73.9	73.9	33	43.0	1	3	292	0.00	30.038 
20:20	73.5	73.5	73.5	32	41.8	1	3	292	0.00	30.038 
20:25	73.3	73.3	73.3	35	44.0	1	3	315	0.00	30.038 
20:30	73.0	73.0	73.0	34	43.0	0	4	292	0.00	30.043 
20:35	72.5	72.5	72.5	35	43.3	0	1	292	0.00	30.043 
20:40	72.3	72.3	72.3	35	43.1	0	2	292	0.00	30.043 
20:45	72.0	72.0	72.0	36	43.6	0	2	292	0.00	30.050 
20:50	71.5	71.5	71.5	37	43.8	0	1	292	0.00	30.050 
20:55	71.1	71.1	71.1	39	44.9	0	2	292	0.00	30.050 
21:00	70.9	70.9	70.9	38	44.0	1	3	292	0.00	30.053 
21:05	70.8	70.8	70.8	39	44.6	1	2	292	0.00	30.053 
21:10	70.4	70.4	70.4	39	44.2	0	2	292	0.00	30.053 
21:15	70.1	70.1	70.1	39	44.0	0	1	292	0.00	30.052 
21:20	69.9	69.9	69.9	40	44.5	0	1	292	0.00	30.052 
21:25	69.6	69.6	69.6	40	44.2	0	1	292	0.00	30.052 
21:30	69.3	69.3	69.3	40	43.9	0	1	292	0.00	30.053 
21:35	68.9	68.9	68.9	40	43.6	0	1	292	0.00	30.053 
21:40	68.6	68.6	68.6	40	43.3	0	0	---	0.00	30.053 
21:45	68.3	68.3	68.3	41	43.7	0	0	---	0.00	30.058 
21:50	67.9	67.9	67.9	41	43.3	0	1	292	0.00	30.058 
21:55	67.6	67.6	67.6	42	43.7	0	0	---	0.00	30.058 
22:00	67.3	67.3	67.3	42	43.4	0	1	292	0.00	30.067 
22:05	66.9	66.9	66.9	43	43.7	0	0	---	0.00	30.067 
22:10	66.6	66.6	66.6	43	43.4	0	0	---	0.00	30.067 
22:15	66.3	66.3	66.3	44	43.7	0	0	---	0.00	30.069 
22:20	65.8	65.8	65.8	45	43.9	0	0	---	0.00	30.069 
22:25	65.5	65.5	65.5	46	44.2	0	0	---	0.00	30.069 
22:30	65.0	65.0	65.0	46	43.7	0	0	---	0.00	30.069 
22:35	64.8	64.8	64.8	47	44.1	0	0	---	0.00	30.069 
22:40	64.5	64.5	64.5	46	43.3	0	0	---	0.00	30.069 
22:45	64.3	64.3	64.3	47	43.6	0	0	---	0.00	30.075 
22:50	64.2	64.2	64.2	47	43.5	0	0	---	0.00	30.075 
22:55	64.0	64.0	64.0	47	43.4	0	0	---	0.00	30.075 
23:00	63.9	63.9	63.9	49	44.4	0	0	---	0.00	30.083 
23:05	63.5	63.5	63.5	50	44.5	0	0	---	0.00	30.083 
23:10	63.2	63.2	63.2	51	44.8	0	0	---	0.00	30.083 
23:15	63.1	63.1	63.1	50	44.2	0	0	---	0.00	30.085 
23:20	62.9	62.9	62.9	51	44.5	0	0	---	0.00	30.085 
23:25	62.6	62.6	62.6	51	44.2	0	0	---	0.00	30.085 
23:30	62.4	62.4	62.4	52	44.5	0	0	---	0.00	30.085 
23:35	62.3	62.3	62.3	52	44.4	0	0	---	0.00	30.085 
23:40	62.1	62.1	62.1	53	44.8	0	1	292	0.00	30.085 
23:45	62.0	62.0	62.0	52	44.2	0	0	---	0.00	30.087 
23:50	61.8	61.8	61.8	53	44.5	0	0	---	0.00	30.087 
23:55	61.6	61.6	61.6	54	44.8	0	0	---	0.00	30.087 

CoCoRaHS
IN-AL-39
A2 Web Hosting
Creative Commons License
GoDaddy
search engine by freefind advanced

loaded 2018-11-15 19:04:19 • last modified 2010-11-18 10:43:29
Privacy PolicyDisclaimer
• wx.awcolley.com is powered by PmWiki v.2002016 •
• all content (unless otherwise noted) © 2018 A W Colley